x

Virginia Beach 64 Nm East Of Virginia Beach, Va (44014) Wave Buoy

4:50 - Thu 25th Dec 2014 All times are EST. -5 hours from GMT.

  • Sig Wave height 6.2ft
  • Swell Direction
  • Peak Period 8s
  • Average Period 6s
  • Wind
    13mph, 16mph gusts
  • Sea Temp 53°f
  • Luft Temp 57°f
  • Sea Pressure 1005.5mb
  • Virginia Beach 64 Nm East Of Virginia Beach, Va
  • Virginia Beach 64 Nm East Of Virginia Beach, Va

More Historic Weather Station data

Upgrade to MSW Pro to gain access to the past 30 days of data for over 8000 Wavebouys and Weather Stations around the globe.

Join Pro

Comparision Forecast

View Surf forecast
   
Do 12/25 4:50 6ft 8s 6s 13 16 mph 1005.5mb 53f 57f
3:50 7ft 8s 6s 18 20 mph 1005.4mb 53f 58f
2:50 7ft 8s 6s 20 22 mph 1005.1mb 53f 61f
1:50 7ft 8s 6s 20 22 mph 1005.3mb 53f 60f
12:50 7ft 8s 6s 22 25 mph 1005mb 53f 60f
Mi 12/24 11:50 7ft 8s 6s 18 20 mph 1005.8mb 53f 58f
10:50 7ft 8s 6s 18 20 mph 1006.5mb 53f 59f
9:50 7ft 8s 6s 20 22 mph 1007mb 53f 59f
8:50 7ft 7s 6s 25 29 mph 1007.3mb 53f 60f
7:50 6.5ft 7s 6s 20 25 mph 1007.4mb 53f 59f
6:50 7ft 7s 6s 25 29 mph 1007.2mb 53f 61f
5:50 7ft 8s 6s 20 31 mph 1007.7mb 53f 60f
4:50 6ft 7s 5s 20 25 mph 1007.9mb 53f 60f
3:50 5ft 7s 5s 22 27 mph 1008.5mb 53f 61f
2:50 5ft 6s 5s 22 27 mph 1008.2mb 53f 60f
1:50 4.5ft 6s 5s 18 20 mph 1008.8mb 53f 60f
12:50 4.5ft 9s 5s 18 20 mph 1009.5mb 53f 60f
11:50 4.5ft 7s 5s 16 18 mph 1010.6mb 53f 60f
10:50 4ft 10s 5s 18 20 mph 1011.7mb 53f 60f
9:50 4.5ft 8s 6s 13 16 mph 1012.5mb 53f 60f
8:50 4.5ft 7s 6s 16
mph
1012.4mb 53f 60f
7:50 4ft 7s 6s 16 20 mph 1011.9mb 53f 61f
6:50 4.5ft 8s 6s 16 18 mph 1011.6mb 53f 60f
5:50 3.5ft 9s 7s 13 16 mph 1013.3mb 53f 60f
4:50 4ft 8s 7s 13
mph
1013.2mb 53f 61f
3:50 4ft 7s 7s 7 9 mph 1014.6mb 53f 59f
2:50 4ft 8s 7s 7 9 mph 1015mb 53f 56f
1:50 4.5ft 8s 7s 4
mph
1015.6mb 53f 56f
12:50 4.5ft 9s 7s 4 7 mph 1016.3mb 54f 56f
Di 12/23 11:50 4.5ft 7s 7s 9 11 mph 1016mb 53f 55f
10:50 4.5ft 8s 7s 7
mph
1017.1mb 53f 53f
9:50 4.5ft 9s 7s 9
mph
1016.8mb 53f 52f
8:50 4.5ft 8s 7s 4
mph
1016.9mb 53f 52f
7:50 4.5ft 7s 7s 4
mph
1017.3mb 53f 51f
6:50 4.5ft 8s 6s 4
mph
1017.6mb 53f 51f
5:50 4ft 9s 6s 7 9 mph 1017.4mb 53f 50f
4:50 4ft 9s 6s 4
mph
1017.4mb 53f 50f
3:50 4ft 7s 6s 7
mph
1017.3mb 53f 49f
2:50 4.5ft 9s 6s 4 7 mph 1017.1mb 53f 49f
1:50 4.5ft 7s 6s 9 11 mph 1016.1mb 53f 49f
12:50 4.5ft 7s 6s 9 11 mph 1016.9mb 53f 48f
11:50 5ft 7s 6s 11 13 mph 1017.1mb 53f 48f
10:50 5ft 7s 6s 9 11 mph 1017.3mb 53f 48f
9:50 5ft 7s 6s 13 16 mph 1017.6mb 53f 48f
8:50 5.5ft 7s 6s 13 18 mph 1017.2mb 53f 49f
7:50 6.5ft 7s 6s 13 16 mph 1016.8mb 53f 49f
6:50 6ft 8s 6s 13 16 mph 1016mb 53f 49f
5:50 6.5ft 7s 6s 9 11 mph 1015.6mb 53f 50f
4:50 7ft 8s 6s 9 11 mph 1014.6mb 53f 51f
3:50 7ft 9s 7s 16 22 mph 1014.1mb 53f 52f
2:50 8ft 8s 7s 9 11 mph 1013.8mb 54f 54f
1:50 8.5ft 8s 7s 9 11 mph 1013.4mb 54f 55f
12:50 9.5ft 8s 7s 7
mph
1013mb 54f 56f
Mo 12/22 11:50 10ft 9s 7s 4 7 mph 1013.7mb 54f 55f
10:50 10ft 8s 7s 2 4 mph 1013.6mb 54f 59f
9:50 10ft 9s 7s 4 7 mph 1013.7mb 55f 60f
8:50 11.5ft 8s 7s 7 9 mph 1014.3mb 56f 60f
7:50 12ft 8s 7s 13 16 mph 1014.1mb 56f 61f
6:50 11.5ft 8s 7s 9 11 mph 1014.7mb 55f 60f
5:50 10ft 8s 6s 22 25 mph 1014.4mb 54f 60f
4:50 10ft 7s 6s 18 20 mph 1015.1mb 54f 60f
3:50 8ft 7s 6s 20 25 mph 1014.7mb 54f 59f
2:50 9ft 7s 6s 25 29 mph 1014.4mb 54f 59f
1:50 8ft 7s 6s 22 25 mph 1015.2mb 54f 58f
12:50 6.5ft 6s 5s 20 25 mph 1016.7mb 54f 58f
11:50 7ft 6s 5s 18 22 mph 1018.2mb 54f 58f
10:50 6ft 6s 5s 18 25 mph 1019.3mb 54f 58f
9:50 6ft 6s 5s 25 31 mph 1019.6mb 54f 56f
8:50 6ft 5s 5s 25 31 mph 1020.1mb 54f 54f
7:50 5ft 5s 4s 25 27 mph 1020.3mb 54f 55f
6:50 4.5ft 5s 4s 25 29 mph 1020.4mb 53f 54f
5:50 4ft 4s 4s 25 31 mph 1020.6mb 53f 53f
4:50 3.5ft 4s 4s 25 27 mph 1020.9mb 53f 52f
3:50 3.5ft 4s 4s 22 27 mph 1021.8mb 53f 51f
2:50 3ft 4s 4s 20 25 mph 1022.7mb 54f 51f
1:50 2.5ft 4s 4s 22 25 mph 1022.7mb 54f 50f
12:50 2.5ft 4s 4s 20 22 mph 1023.4mb 54f 50f
So 12/21 11:50 2.5ft 10s 4s 18 22 mph 1023.7mb 55f 49f
10:50 2.5ft 4s 4s 18 20 mph 1024.5mb 55f 49f
9:50 2.5ft 4s 4s 16 18 mph 1024.8mb 54f 48f
8:50 2.5ft 3s 4s 16 18 mph 1024.9mb 54f 48f
7:50 2.5ft 4s 4s 16 20 mph 1025.4mb 54f 48f
6:50 2.5ft 4s 4s 16 20 mph 1025.2mb 54f 47f
5:50 2.5ft 4s 4s 16 18 mph 1025mb 54f 47f
4:50 2.5ft 4s 4s 13 16 mph 1024.5mb 54f 46f
3:50 2.5ft 4s 4s 16 20 mph 1024.1mb 54f 45f
2:50 2.5ft 4s 4s 16 18 mph 1024.7mb 54f 45f
1:50 2.5ft 4s 4s 13 16 mph 1025mb 54f 45f
12:50 2.5ft 4s 4s 16 18 mph 1025mb 54f 45f
11:50 2.5ft 3s 4s 13 16 mph 1025.8mb 54f 45f